createdAt,value
2023-01-18T00:00:35.264Z,21.60
2023-01-18T00:03:02.105Z,20.70
2023-01-18T00:05:28.953Z,22.20
2023-01-18T00:07:55.919Z,19.80
2023-01-18T00:10:22.938Z,20.10
2023-01-18T00:12:49.928Z,22.00
2023-01-18T00:15:17.050Z,19.80
2023-01-18T00:17:53.185Z,19.80
2023-01-18T00:20:21.747Z,20.20
2023-01-18T00:22:49.126Z,20.70
2023-01-18T00:25:16.043Z,19.20
2023-01-18T00:27:50.579Z,17.30
2023-01-18T00:30:19.043Z,18.30
2023-01-18T00:32:45.828Z,18.70
2023-01-18T00:35:13.177Z,21.10
2023-01-18T00:37:40.057Z,24.60
2023-01-18T00:40:08.840Z,23.00
2023-01-18T00:42:54.645Z,22.30
2023-01-18T00:45:21.707Z,20.50
2023-01-18T00:47:48.483Z,20.70
2023-01-18T00:50:15.397Z,20.50
2023-01-18T00:52:46.360Z,20.80
2023-01-18T00:55:14.072Z,20.00
2023-01-18T00:57:41.022Z,19.30
2023-01-18T01:00:12.149Z,20.60
2023-01-18T01:02:41.930Z,22.00
2023-01-18T01:05:36.797Z,20.70
2023-01-18T01:08:03.844Z,19.70
2023-01-18T01:10:30.682Z,20.30
2023-01-18T01:13:16.175Z,20.00
2023-01-18T01:16:01.672Z,18.90
2023-01-18T01:18:47.353Z,18.80
2023-01-18T01:21:32.865Z,21.10
2023-01-18T01:24:18.375Z,17.90
2023-01-18T01:26:45.217Z,16.40
2023-01-18T01:29:12.214Z,17.50
2023-01-18T01:31:39.457Z,17.10
2023-01-18T01:34:06.410Z,17.10
2023-01-18T01:36:33.272Z,17.90
2023-01-18T01:39:00.141Z,17.60
2023-01-18T01:41:28.580Z,17.70
2023-01-18T01:43:59.579Z,16.60
2023-01-18T01:46:29.523Z,16.50
2023-01-18T01:49:01.516Z,15.40
2023-01-18T01:51:28.304Z,17.80
2023-01-18T01:53:55.033Z,16.80
2023-01-18T01:56:21.804Z,16.40
2023-01-18T01:58:48.659Z,16.60
2023-01-18T02:01:15.619Z,17.70
2023-01-18T02:03:42.742Z,17.10
2023-01-18T02:06:31.857Z,15.90
2023-01-18T02:09:00.311Z,16.00
2023-01-18T02:11:27.228Z,15.40
2023-01-18T02:13:54.774Z,16.10
2023-01-18T02:16:30.317Z,16.90
2023-01-18T02:19:25.417Z,17.00
2023-01-18T02:22:00.115Z,16.60
2023-01-18T02:24:46.734Z,16.40
2023-01-18T02:27:22.446Z,16.50
2023-01-18T02:30:01.925Z,18.60
2023-01-18T02:32:53.952Z,17.20
2023-01-18T02:35:26.573Z,15.60
2023-01-18T02:38:17.173Z,15.80
2023-01-18T02:41:18.014Z,16.40
2023-01-18T02:44:03.928Z,14.90
2023-01-18T02:46:30.821Z,15.00
2023-01-18T02:48:58.163Z,16.10
2023-01-18T02:51:25.363Z,15.40
2023-01-18T02:53:52.266Z,14.50
2023-01-18T02:56:23.732Z,13.80
2023-01-18T02:59:02.063Z,14.70
2023-01-18T03:01:51.035Z,15.20
2023-01-18T03:04:54.439Z,13.30
2023-01-18T03:07:48.708Z,14.50
2023-01-18T03:10:15.665Z,15.30
2023-01-18T03:12:46.895Z,14.80
2023-01-18T03:15:19.364Z,14.20
2023-01-18T03:17:57.495Z,14.10
2023-01-18T03:20:28.480Z,14.70
2023-01-18T03:23:18.797Z,14.10
2023-01-18T03:25:47.126Z,14.00
2023-01-18T03:28:39.869Z,14.40
2023-01-18T03:31:28.436Z,14.20
2023-01-18T03:33:59.187Z,14.10
2023-01-18T03:36:27.906Z,16.40
2023-01-18T03:38:57.900Z,16.90
2023-01-18T03:41:28.212Z,18.50
2023-01-18T03:43:56.151Z,16.70
2023-01-18T03:46:22.936Z,19.60
2023-01-18T03:48:49.748Z,16.00
2023-01-18T03:51:22.837Z,15.80
2023-01-18T03:54:09.665Z,16.40
2023-01-18T03:56:42.470Z,15.60
2023-01-18T03:59:09.287Z,16.00
2023-01-18T04:01:36.243Z,14.90
2023-01-18T08:04:52.417Z,14.50
2023-01-18T08:21:11.871Z,9.50
2023-01-18T08:23:39.511Z,9.10
2023-01-18T08:26:06.736Z,8.80
2023-01-18T08:28:33.583Z,9.50
2023-01-18T08:31:12.111Z,9.00
2023-01-18T08:33:40.568Z,11.60
2023-01-18T08:36:11.933Z,10.30
2023-01-18T08:38:39.045Z,8.60
2023-01-18T08:41:06.013Z,8.40
2023-01-18T08:43:33.059Z,8.90
2023-01-18T08:45:59.834Z,8.00
2023-01-18T08:48:26.598Z,10.50
2023-01-18T08:50:53.454Z,8.10
2023-01-18T08:53:20.442Z,9.00
2023-01-18T08:55:47.356Z,10.50
2023-01-18T08:58:14.175Z,8.60
2023-01-18T09:00:41.174Z,9.60
2023-01-18T09:03:08.100Z,8.60
2023-01-18T09:05:35.859Z,11.00
2023-01-18T09:08:02.941Z,12.10
2023-01-18T09:10:29.701Z,9.80
2023-01-18T09:12:57.211Z,9.70
2023-01-18T09:15:24.439Z,7.90
2023-01-18T09:17:51.318Z,10.10
2023-01-18T09:20:19.145Z,9.90
2023-01-18T09:22:47.985Z,10.70
2023-01-18T09:27:42.454Z,8.10
2023-01-18T09:30:09.894Z,8.20
2023-01-18T09:32:36.755Z,10.30
2023-01-18T09:35:03.769Z,9.20
2023-01-18T09:37:31.623Z,8.00
2023-01-18T09:40:00.507Z,9.50
2023-01-18T09:42:30.764Z,10.80
2023-01-18T09:44:59.163Z,10.30
2023-01-18T09:47:29.094Z,8.40
2023-01-18T09:50:02.368Z,8.10
2023-01-18T09:52:38.476Z,9.00
2023-01-18T09:55:28.822Z,10.90
2023-01-18T09:58:11.205Z,9.20
2023-01-18T10:00:41.945Z,11.20
2023-01-18T14:16:16.008Z,8.80
2023-01-18T14:18:49.197Z,7.00
2023-01-18T14:21:37.745Z,7.00
2023-01-18T14:26:53.047Z,6.90
2023-01-18T14:29:20.551Z,8.00
2023-01-18T14:31:52.890Z,8.70
2023-01-18T14:34:23.236Z,7.80
2023-01-18T14:36:50.187Z,7.70
2023-01-18T14:39:18.031Z,6.70
2023-01-18T14:41:46.183Z,7.10
2023-01-18T14:44:56.374Z,6.50
2023-01-18T14:47:24.784Z,6.60
2023-01-18T14:49:51.707Z,6.50
2023-01-18T14:52:18.560Z,5.80
2023-01-18T14:54:52.679Z,6.20
2023-01-18T14:57:21.137Z,6.90
2023-01-18T15:00:17.434Z,6.80
2023-01-18T15:02:44.584Z,6.20
2023-01-18T15:05:17.035Z,6.60
2023-01-18T15:07:46.089Z,7.10
2023-01-18T15:10:16.703Z,7.40
2023-01-18T15:12:43.520Z,6.20
2023-01-18T15:15:34.236Z,6.70
2023-01-18T15:18:04.908Z,5.80
2023-01-18T15:20:32.451Z,7.00
2023-01-18T15:22:59.584Z,7.30
2023-01-18T15:25:28.663Z,7.70
2023-01-18T15:30:25.228Z,6.20
2023-01-18T15:32:56.459Z,7.70
2023-01-18T15:35:25.468Z,8.00
2023-01-18T15:37:52.349Z,6.60
2023-01-18T15:40:19.077Z,7.40
2023-01-18T15:42:45.810Z,6.30
2023-01-18T15:45:24.551Z,7.40
2023-01-18T15:48:02.687Z,7.50
2023-01-18T15:51:06.311Z,8.00
2023-01-18T15:53:34.188Z,7.40
2023-01-18T15:56:03.449Z,7.50
2023-01-18T15:58:39.995Z,6.60
2023-01-18T16:01:18.145Z,7.10
2023-01-18T20:16:59.313Z,6.20
2023-01-18T20:19:26.232Z,8.00
2023-01-18T20:21:53.075Z,7.40
2023-01-18T20:24:19.915Z,6.70
2023-01-18T20:26:46.867Z,6.60
2023-01-18T20:29:13.698Z,6.30
2023-01-18T20:31:42.005Z,6.70
2023-01-18T20:34:10.011Z,6.80
2023-01-18T20:36:37.659Z,6.40
2023-01-18T20:39:05.369Z,6.40
2023-01-18T20:41:32.302Z,6.00
2023-01-18T20:43:59.248Z,6.90
2023-01-18T20:46:26.493Z,6.80
2023-01-18T20:48:53.298Z,5.30
2023-01-18T20:51:20.261Z,7.00
2023-01-18T20:53:47.102Z,6.50
2023-01-18T20:56:28.325Z,6.40
2023-01-18T20:58:56.224Z,5.70
2023-01-18T21:01:23.135Z,7.00
2023-01-18T21:03:54.317Z,7.20
2023-01-18T21:06:21.218Z,8.10
2023-01-18T21:08:48.051Z,6.50
2023-01-18T21:11:15.988Z,7.90
2023-01-18T21:13:42.757Z,7.70
2023-01-18T21:16:09.692Z,7.20
2023-01-18T21:18:37.794Z,7.00
2023-01-18T21:21:05.143Z,10.30
2023-01-18T21:23:39.528Z,6.80
2023-01-18T21:26:07.891Z,6.80
2023-01-18T21:28:34.775Z,6.70
2023-01-18T21:31:01.637Z,7.30
2023-01-18T21:33:28.411Z,7.90
2023-01-18T21:35:55.151Z,6.90
2023-01-18T21:38:23.209Z,7.50
2023-01-18T21:40:50.016Z,6.60
2023-01-18T21:43:37.743Z,8.20
2023-01-18T21:46:05.886Z,5.90
2023-01-18T21:48:32.739Z,6.40
2023-01-18T21:51:19.707Z,6.90
2023-01-18T21:54:05.351Z,7.80
2023-01-18T21:56:32.296Z,6.20
2023-01-18T21:59:01.021Z,7.50
2023-01-18T22:04:20.992Z,7.40
2023-01-18T22:06:48.193Z,6.90
2023-01-18T22:09:15.393Z,6.00
2023-01-18T22:11:42.312Z,6.40
2023-01-18T22:14:09.288Z,6.80
2023-01-18T22:16:36.473Z,6.80
2023-01-18T22:19:05.131Z,6.60
2023-01-18T22:21:32.238Z,6.00
2023-01-18T22:23:59.182Z,6.90
2023-01-18T22:26:26.949Z,7.20
2023-01-18T22:28:53.749Z,6.30
2023-01-18T22:31:20.740Z,6.10
2023-01-18T22:33:48.404Z,6.80
2023-01-18T22:36:16.032Z,6.40
2023-01-18T22:38:42.860Z,5.90
2023-01-18T22:41:15.478Z,6.30
2023-01-18T22:43:42.543Z,5.90
2023-01-18T22:46:12.253Z,7.30
2023-01-18T22:48:39.204Z,6.60
2023-01-18T22:51:07.486Z,7.00
2023-01-18T22:53:34.896Z,6.20
2023-01-18T22:56:12.322Z,5.80
2023-01-18T22:58:39.166Z,5.60
2023-01-18T23:01:38.604Z,5.80
2023-01-18T23:04:05.452Z,6.10
2023-01-18T23:06:48.177Z,6.40
2023-01-18T23:09:16.004Z,5.80
2023-01-18T23:11:43.145Z,6.00
2023-01-18T23:14:28.701Z,5.50
2023-01-18T23:17:14.262Z,7.70
2023-01-18T23:19:41.156Z,6.10
2023-01-18T23:22:07.995Z,6.50
2023-01-18T23:24:35.962Z,6.90
2023-01-18T23:27:03.836Z,6.80
2023-01-18T23:29:30.622Z,5.50
2023-01-18T23:31:58.242Z,6.70
2023-01-18T23:34:25.483Z,6.40
2023-01-18T23:36:52.841Z,7.70
2023-01-18T23:39:38.463Z,9.80
2023-01-18T23:42:24.120Z,7.40
2023-01-18T23:45:09.569Z,7.50
2023-01-18T23:47:55.199Z,6.80
2023-01-18T23:50:40.634Z,7.20
2023-01-18T23:53:30.203Z,7.90
2023-01-18T23:55:57.066Z,7.20
2023-01-18T23:58:24.052Z,6.10
